Latest Weather Observations for Kilmore Gap

IDV60801

Issued at 2:05 pm EST Monday 22 September 2014 (issued every 30 minutes, with the page automatically refreshed every 10 minutes)

About weather observations | Map of weather stations | Latest weather observations for VIC | Other Formats
Station Details ID: 088162 Name: KILMORE GAP Lat: -37.38 Lon: 144.97 Height: 527.8 m
Data from the previous 72 hours. | See also: Recent months at Kilmore Gap
Date/Time
EST
Temp
°C
App
Temp
°C
Dew
Point
Rel
Hum
%
Delta-T
°C
Wind Press
QNH
hPa
Press
MSL
hPa
Rain
since 9 am
mm
Dir
 
Spd
km/h
Gust
km/h
Spd
kts
Gust
kts
22/02:00pm 16.7 12.5 9.6 63 3.8 N 22 32 12 17 1027.7 - 0.2
22/01:30pm 15.8 10.6 8.8 63 3.7 N 26 37 14 20 1027.8 - 0.2
22/01:00pm 15.9 10.9 9.6 66 3.4 N 26 35 14 19 1028.0 - 0.2
22/12:30pm 15.7 11.0 10.5 71 2.8 N 26 33 14 18 1028.4 - 0.2
22/12:00pm 15.8 11.4 11.8 77 2.2 N 26 33 14 18 1028.9 1029.5 0.2
22/11:30am 14.9 9.6 9.9 72 2.7 N 28 35 15 19 1029.2 - 0.2
22/11:00am 14.5 9.6 9.9 74 2.5 N 26 33 14 18 1029.5 - 0.0
22/10:30am 13.5 8.0 9.0 74 2.3 N 28 35 15 19 1029.6 - 0.0
22/10:00am 13.3 7.2 9.7 79 1.9 N 32 39 17 21 1029.7 - 0.0
22/09:30am 12.2 5.8 8.7 79 1.8 N 32 41 17 22 1029.5 - 0.0
22/09:00am 11.5 5.0 8.2 80 1.7 N 32 37 17 20 1029.5 1030.1 0.2
22/08:30am 10.8 5.1 8.4 85 1.2 N 28 33 15 18 1029.4 - 0.2
22/08:00am 9.8 4.3 7.6 86 1.1 N 26 33 14 18 1029.2 - 0.2
22/07:30am 8.6 3.4 7.2 91 0.7 N 24 30 13 16 1029.0 - 0.2
22/07:00am 7.8 2.5 6.7 93 0.5 N 24 28 13 15 1028.8 - 0.2
22/06:30am 7.8 2.4 6.4 91 0.7 N 24 28 13 15 1028.4 - 0.2
22/06:00am 7.8 2.8 6.4 91 0.7 N 22 26 12 14 1028.3 1029.0 0.2
22/05:30am 8.0 3.5 6.1 88 0.9 N 19 20 10 11 1028.2 - 0.2
22/05:00am 8.4 5.4 6.0 85 1.1 NE 11 13 6 7 1028.2 - 0.2
22/04:30am 8.5 5.6 6.6 88 0.9 E 11 13 6 7 1028.0 - 0.2
22/04:00am 8.3 5.6 7.2 93 0.5 SE 11 13 6 7 1028.0 - 0.2
22/03:30am 7.9 4.7 6.8 93 0.5 SE 13 15 7 8 1027.9 - 0.2
22/03:00am 7.8 4.2 6.7 93 0.5 SSE 15 15 8 8 1028.0 1028.6 0.2
22/02:30am 7.6 4.4 6.9 95 0.3 SSE 13 15 7 8 1028.3 - 0.2
22/02:00am 7.8 5.1 7.4 97 0.2 SSE 11 13 6 7 1028.4 - 0.2
22/01:30am 7.0 3.8 6.9 99 0.0 S 13 15 7 8 1028.8 - 0.2
22/01:00am 6.1 3.1 6.0 99 0.0 S 11 13 6 7 1028.9 - 0.2
22/12:30am 6.2 3.2 6.1 99 0.0 SSE 11 13 6 7 1028.9 - 0.2
22/12:00am 5.6 1.7 5.5 99 0.0 S 15 17 8 9 1029.0 1029.6 0.2
 
Date/Time
EST
Temp
°C
App
Temp
°C
Dew
Point
Rel
Hum
%
Delta-T
°C
Wind Press
QNH
hPa
Press
MSL
hPa
Rain
since 9 am
mm
Dir
 
Spd
km/h
Gust
km/h
Spd
kts
Gust
kts
21/11:30pm 5.6 1.4 5.5 99 0.0 S 17 19 9 10 1029.0 - 0.2
21/11:00pm 5.8 1.6 5.7 99 0.0 S 17 20 9 11 1029.3 - 0.2
21/10:30pm 5.8 1.2 5.5 98 0.1 S 19 22 10 12 1029.4 - 0.2
21/10:00pm 6.0 0.8 5.7 98 0.1 S 22 26 12 14 1029.6 - 0.2
21/09:30pm 6.4 1.7 6.1 98 0.1 S 20 26 11 14 1029.8 - 0.2
21/09:00pm 6.7 2.1 6.3 97 0.2 S 20 24 11 13 1029.7 1030.3 0.2
21/08:30pm 6.8 1.8 6.4 97 0.2 S 22 28 12 15 1029.7 - 0.2
21/08:00pm 6.7 2.2 6.1 96 0.3 S 19 22 10 12 1029.8 - 0.2
21/07:30pm 7.0 2.5 6.1 94 0.4 S 19 24 10 13 1029.6 - 0.2
21/07:00pm 7.8 3.3 6.1 89 0.8 S 19 24 10 13 1029.6 - 0.2
21/06:30pm 8.5 4.1 6.5 87 1.0 S 19 26 10 14 1029.3 - 0.2
21/06:00pm 9.8 5.4 6.7 81 1.5 S 19 22 10 12 1029.0 1029.6 0.2
21/05:30pm 11.6 8.0 6.7 72 2.4 S 15 24 8 13 1028.8 - 0.2
21/05:00pm 12.3 8.8 7.2 71 2.5 S 15 20 8 11 1028.9 - 0.2
21/04:30pm 12.3 9.1 7.0 70 2.6 S 13 19 7 10 1028.9 - 0.2
21/04:00pm 12.6 9.1 7.3 70 2.6 S 15 22 8 12 1028.9 - 0.2
21/03:30pm 13.0 9.4 6.6 65 3.2 S 15 22 8 12 1028.9 - 0.2
21/03:21pm 13.0 9.4 6.6 65 3.2 S 15 24 8 13 1029.0 - 0.2
21/03:00pm 13.2 9.5 8.1 71 2.6 SSE 17 24 9 13 1029.1 1029.7 0.2
21/02:30pm 13.3 9.2 7.7 69 2.8 S 19 26 10 14 1029.3 - 0.2
21/02:00pm 13.1 8.9 7.5 69 2.8 S 19 26 10 14 1029.5 - 0.2
21/01:30pm 12.4 8.1 6.9 69 2.7 SSE 19 28 10 15 1029.7 - 0.2
21/01:00pm 12.4 8.8 8.5 77 2.0 S 17 26 9 14 1030.0 - 0.2
21/12:30pm 11.7 6.6 7.8 77 2.0 SSE 24 33 13 18 1030.4 - 0.2
21/12:00pm 11.7 7.9 7.4 75 2.1 S 17 30 9 16 1030.8 1031.4 0.2
21/11:30am 11.3 6.9 7.6 78 1.8 SSE 20 30 11 16 1031.0 - 0.2
21/11:00am 10.2 5.2 6.5 78 1.8 SSE 22 33 12 18 1031.1 - 0.0
21/10:30am 10.7 6.5 8.1 84 1.3 SSE 20 30 11 16 1031.1 - 0.0
21/10:00am 9.1 4.6 6.0 81 1.5 S 19 24 10 13 1031.0 - 0.0
21/09:30am 9.9 5.0 6.8 81 1.5 SSE 22 32 12 17 1031.0 - 0.0
21/09:00am 8.9 4.2 6.0 82 1.4 SSE 20 32 11 17 1030.7 1031.3 0.0
21/08:30am 8.4 4.0 6.7 89 0.8 S 19 30 10 16 1030.4 - 0.0
21/08:00am 7.3 3.0 7.2 99 0.0 S 19 28 10 15 1030.3 - 0.0
21/07:30am 6.5 2.5 6.5 100 0.0 S 17 24 9 13 1030.1 - 0.0
21/07:00am 5.5 0.7 5.5 100 0.0 S 20 28 11 15 1029.7 - 0.0
21/06:30am 5.3 0.6 5.3 100 0.0 S 19 24 10 13 1029.3 - 0.0
21/06:12am 5.4 0.8 5.4 100 0.0 S 19 26 10 14 1029.2 - 0.0
21/06:00am 5.4 0.8 5.4 100 0.0 S 19 26 10 14 1029.1 1029.7 0.0
21/05:30am 6.2 1.7 6.2 100 0.0 S 19 28 10 15 1029.1 - 0.0
21/05:00am 5.9 1.4 5.9 100 0.0 S 19 26 10 14 1028.9 - 0.0
21/04:30am 6.0 2.2 6.0 100 0.0 S 15 24 8 13 1028.7 - 0.0
21/04:00am 6.3 1.8 6.3 100 0.0 S 19 28 10 15 1028.8 - 0.0
21/03:30am 6.2 1.1 6.2 100 0.0 S 22 30 12 16 1028.7 - 0.0
21/03:28am 6.1 1.4 6.1 100 0.0 S 20 30 11 16 1028.7 - 0.0
21/03:00am 5.8 1.6 5.8 100 0.0 S 17 22 9 12 1028.4 1029.1 0.0
21/02:30am 5.7 1.5 5.7 100 0.0 S 17 20 9 11 1028.5 - 0.0
21/02:08am 5.6 1.4 5.6 100 0.0 S 17 22 9 12 1028.5 - 0.0
21/02:00am 5.7 1.5 5.7 100 0.0 S 17 22 9 12 1028.5 - 0.0
21/01:30am 5.9 1.7 5.9 100 0.0 S 17 20 9 11 1028.8 - 0.0
21/01:00am 5.7 1.1 5.7 100 0.0 S 19 24 10 13 1029.1 - 0.0
21/12:30am 5.8 1.6 5.8 100 0.0 S 17 20 9 11 1029.0 - 0.0
21/12:00am 5.4 2.3 5.4 100 0.0 S 11 15 6 8 1028.9 1029.5 0.0
 
Date/Time
EST
Temp
°C
App
Temp
°C
Dew
Point
Rel
Hum
%
Delta-T
°C
Wind Press
QNH
hPa
Press
MSL
hPa
Rain
since 9 am
mm
Dir
 
Spd
km/h
Gust
km/h
Spd
kts
Gust
kts
20/11:30pm 5.7 1.9 5.7 100 0.0 S 15 17 8 9 1028.9 - 0.0
20/11:00pm 5.4 1.5 5.4 100 0.0 S 15 17 8 9 1028.8 - 0.0
20/10:30pm 5.5 1.3 5.5 100 0.0 S 17 20 9 11 1029.0 - 0.0
20/10:10pm 5.8 1.2 5.8 100 0.0 S 19 24 10 13 1029.0 - 0.0
20/10:00pm 5.9 1.2 5.9 100 0.0 S 20 28 11 15 1029.0 - 0.0
20/09:38pm 5.8 1.0 5.8 100 0.0 S 20 28 11 15 1029.0 - 0.0
20/09:30pm 5.9 1.2 5.9 100 0.0 S 20 28 11 15 1029.0 - 0.0
20/09:00pm 6.7 1.8 6.7 100 0.0 S 22 30 12 16 1029.1 1029.7 0.0
20/08:30pm 7.3 2.9 7.3 100 0.0 S 20 26 11 14 1028.9 - 0.0
20/08:00pm 7.1 1.5 7.1 100 0.0 S 26 35 14 19 1028.7 - 0.0
20/07:30pm 7.3 2.1 7.3 100 0.0 S 24 32 13 17 1028.4 - 0.0
20/07:29pm 7.3 2.1 7.3 100 0.0 S 24 32 13 17 1028.4 - 0.0
20/07:18pm 7.4 2.2 7.4 100 0.0 S 24 32 13 17 1028.2 - 0.0
20/07:00pm 7.5 2.4 7.5 100 0.0 S 24 35 13 19 1028.0 - 0.0
20/06:52pm 7.5 2.3 7.4 99 0.0 S 24 35 13 19 1028.0 - 0.0
20/06:36pm 7.4 2.1 7.0 97 0.2 S 24 33 13 18 1027.8 - 0.0
20/06:30pm 7.5 2.2 6.9 96 0.3 S 24 39 13 21 1027.8 - 0.0
20/06:00pm 8.7 3.4 7.0 89 0.8 S 24 41 13 22 1027.7 1028.3 0.0
20/05:48pm 8.9 3.7 7.2 89 0.8 S 24 39 13 21 1027.5 - 0.0
20/05:30pm 8.8 2.8 7.1 89 0.8 S 28 41 15 22 1027.4 - 0.0
20/05:00pm 9.9 4.6 7.0 82 1.4 S 24 33 13 18 1027.1 - 0.0
20/04:30pm 10.1 4.4 6.6 79 1.7 S 26 41 14 22 1026.7 - 0.0
20/04:00pm 10.0 4.6 6.2 77 1.8 S 24 37 13 20 1026.5 - 0.0
20/03:30pm 11.6 6.5 7.5 76 2.0 S 24 35 13 19 1026.2 - 0.0
20/03:00pm 10.3 5.3 6.5 77 1.8 S 22 32 12 17 1026.2 1026.8 0.0
20/02:30pm 10.4 5.0 6.5 77 1.9 S 24 37 13 20 1026.2 - 0.0
20/02:00pm 10.8 5.2 7.1 78 1.8 S 26 37 14 20 1026.2 - 0.0
20/01:30pm 11.7 7.4 8.0 78 1.9 S 20 32 11 17 1026.1 - 0.0
20/01:00pm 11.7 7.7 8.2 79 1.8 S 19 28 10 15 1026.4 - 0.0
20/12:30pm 11.6 7.2 8.8 83 1.4 S 22 32 12 17 1026.5 - 0.0
20/12:16pm 9.9 4.5 6.4 79 1.7 S 24 39 13 21 1026.8 - 0.0
20/12:00pm 9.9 5.5 7.3 84 1.3 S 20 32 11 17 1026.8 1027.4 0.0
20/11:58am 9.8 5.3 7.1 83 1.3 S 20 30 11 16 1026.7 - 0.0
20/11:30am 9.4 4.3 7.5 88 0.9 S 24 37 13 20 1027.0 - 0.0
20/11:07am 9.8 4.9 8.6 92 0.6 S 24 35 13 19 1027.0 - 0.0
20/11:00am 9.6 4.6 7.9 89 0.8 S 24 33 13 18 1026.9 - 0.0
20/10:30am 9.1 4.3 9.0 99 0.1 S 24 35 13 19 1027.1 - 0.0
20/10:00am 8.0 3.0 8.0 100 0.0 S 24 33 13 18 1027.2 - 0.0
20/09:30am 7.5 2.4 7.5 100 0.0 S 24 35 13 19 1027.1 - 0.0
20/09:00am 7.2 2.4 7.2 100 0.0 S 22 33 12 18 1026.8 1027.4 0.0
20/08:30am 6.8 1.5 6.8 100 0.0 S 24 33 13 18 1026.4 - 0.0
20/08:00am 6.7 1.7 6.6 99 0.0 S 22 32 12 17 1026.3 - 0.0
20/07:30am 5.9 0.8 5.8 99 0.0 S 22 32 12 17 1025.9 - 0.0
20/07:00am 5.8 1.0 5.5 98 0.1 S 20 28 11 15 1025.6 - 0.0
20/06:30am 5.9 0.6 5.2 95 0.3 SSW 22 32 12 17 1025.2 - 0.0
20/06:00am 5.8 0.5 4.8 93 0.4 SSW 22 32 12 17 1024.9 1025.4 0.0
20/05:30am 5.0 -0.3 4.9 99 0.0 S 22 28 12 15 1024.6 - 0.0
20/05:00am 5.5 0.6 4.9 96 0.3 S 20 28 11 15 1024.1 - 0.0
20/04:30am 6.0 1.1 5.3 95 0.3 S 20 26 11 14 1024.0 - 0.0
20/04:00am 5.4 0.2 5.3 99 0.0 S 22 32 12 17 1023.9 - 0.0
20/03:30am 5.5 0.3 5.4 99 0.0 S 22 33 12 18 1023.9 - 0.0
20/03:00am 5.4 0.7 5.3 99 0.0 S 19 26 10 14 1023.9 1024.5 0.0
20/02:30am 5.8 1.0 5.7 99 0.0 S 20 28 11 15 1024.0 - 0.0
20/02:00am 5.9 1.1 5.6 98 0.1 SSW 20 28 11 15 1024.2 - 0.0
20/01:30am 5.7 1.1 5.7 100 0.0 SSW 19 30 10 16 1024.6 - 0.0
20/01:00am 5.8 1.6 5.7 99 0.0 SSW 17 24 9 13 1024.6 - 0.0
20/12:30am 6.6 2.0 6.3 98 0.1 S 20 30 11 16 1024.4 - 0.0
20/12:21am 6.7 2.1 6.4 98 0.1 SSW 20 33 11 18 1024.4 - 0.0
20/12:00am 6.9 2.9 6.8 99 0.0 SSW 17 22 9 12 1024.4 1025.0 0.0
 
Date/Time
EST
Temp
°C
App
Temp
°C
Dew
Point
Rel
Hum
%
Delta-T
°C
Wind Press
QNH
hPa
Press
MSL
hPa
Rain
since 9 am
mm
Dir
 
Spd
km/h
Gust
km/h
Spd
kts
Gust
kts
19/11:42pm 7.1 2.8 7.0 99 0.0 SSW 19 28 10 15 1024.4 - 0.0
19/11:30pm 7.0 3.0 6.7 98 0.1 S 17 24 9 13 1024.6 - 0.0
19/11:04pm 7.0 3.0 6.6 97 0.2 S 17 22 9 12 1024.8 - 0.0
19/11:00pm 7.0 3.0 6.6 97 0.2 S 17 22 9 12 1024.8 - 0.0
19/10:52pm 7.1 3.1 6.7 97 0.2 S 17 24 9 13 1024.9 - 0.0
19/10:46pm 7.1 2.7 6.7 97 0.2 S 19 28 10 15 1025.0 - 0.0
19/10:30pm 7.1 2.5 6.5 96 0.3 S 20 28 11 15 1024.9 - 0.0
19/10:00pm 7.2 2.7 6.8 97 0.2 S 20 26 11 14 1025.0 - 0.0
19/09:30pm 7.3 2.9 7.2 99 0.0 S 20 26 11 14 1025.1 - 0.0
19/09:00pm 7.3 2.9 7.2 99 0.0 S 20 26 11 14 1024.8 1025.3 0.0
19/08:30pm 7.2 2.9 6.9 98 0.1 S 19 26 10 14 1024.8 - 0.0
19/08:17pm 7.2 2.7 6.8 97 0.2 S 20 28 11 15 1024.7 - 0.0
19/08:00pm 7.1 2.5 6.5 96 0.3 S 20 26 11 14 1024.6 - 0.0
19/07:30pm 7.2 2.6 6.6 96 0.3 S 20 30 11 16 1024.3 - 0.0
19/07:00pm 7.1 2.5 6.5 96 0.3 S 20 26 11 14 1024.0 - 0.0
19/06:30pm 7.4 3.0 6.5 94 0.4 S 19 24 10 13 1023.9 - 0.0
19/06:00pm 8.1 3.5 6.7 91 0.7 S 20 26 11 14 1023.8 1024.4 0.0
19/05:30pm 9.1 4.7 6.5 84 1.2 S 19 24 10 13 1023.6 - 0.0
19/05:00pm 9.8 5.4 6.7 81 1.5 S 19 28 10 15 1023.4 - 0.0
19/04:30pm 9.9 5.8 6.4 79 1.7 S 17 24 9 13 1023.3 - 0.0
19/04:00pm 10.3 6.1 5.7 73 2.2 S 17 26 9 14 1023.1 - 0.0
19/03:30pm 10.3 5.6 5.9 74 2.1 SSE 20 32 11 17 1023.0 - 0.0
19/03:00pm 10.7 6.1 5.7 71 2.4 S 19 28 10 15 1022.9 1023.4 0.0
19/02:30pm 11.5 6.1 6.2 70 2.6 S 24 33 13 18 1023.1 - 0.0

Other Formats:

Comma delimited format used in spreadsheet applications
http://www.bom.gov.au/fwo/IDV60801/IDV60801.94860.axf

JavaScript Object Notation format (JSON) in row-major order
http://www.bom.gov.au/fwo/IDV60801/IDV60801.94860.json